createdAt,value
2023-03-10T00:00:13.215Z,14.65
2023-03-10T00:02:46.596Z,13.90
2023-03-10T00:05:16.500Z,14.45
2023-03-10T00:07:45.548Z,14.30
2023-03-10T00:10:15.671Z,13.95
2023-03-10T00:12:45.900Z,13.63
2023-03-10T00:15:14.929Z,13.70
2023-03-10T00:17:43.450Z,13.60
2023-03-10T00:20:14.321Z,14.80
2023-03-10T00:22:43.096Z,14.20
2023-03-10T00:25:12.801Z,14.15
2023-03-10T00:27:41.444Z,13.65
2023-03-10T00:30:13.100Z,13.35
2023-03-10T00:32:41.503Z,14.05
2023-03-10T00:35:12.393Z,14.13
2023-03-10T00:37:40.670Z,15.95
2023-03-10T00:40:14.235Z,13.80
2023-03-10T00:42:43.005Z,14.75
2023-03-10T00:45:13.250Z,14.13
2023-03-10T00:47:41.550Z,15.25
2023-03-10T00:50:12.325Z,14.63
2023-03-10T00:52:40.831Z,14.98
2023-03-10T00:55:09.950Z,15.18
2023-03-10T00:57:38.390Z,15.02
2023-03-10T01:00:09.375Z,15.80
2023-03-10T01:02:39.159Z,15.27
2023-03-10T01:05:08.080Z,15.93
2023-03-10T01:07:38.580Z,15.20
2023-03-10T01:10:08.267Z,16.00
2023-03-10T01:12:36.623Z,14.75
2023-03-10T01:15:05.767Z,14.98
2023-03-10T01:17:34.093Z,16.10
2023-03-10T01:20:06.490Z,15.45
2023-03-10T01:22:34.837Z,14.93
2023-03-10T01:25:03.285Z,15.02
2023-03-10T01:27:31.594Z,14.90
2023-03-10T01:29:59.958Z,14.73
2023-03-10T01:32:30.816Z,14.60
2023-03-10T01:34:59.205Z,14.68
2023-03-10T01:37:29.037Z,15.20
2023-03-10T01:39:57.414Z,14.05
2023-03-10T01:42:25.974Z,14.10
2023-03-10T01:45:50.593Z,14.55
2023-03-10T01:48:21.739Z,12.88
2023-03-10T01:50:54.343Z,14.35
2023-03-10T01:53:26.329Z,14.50
2023-03-10T01:55:57.948Z,14.27
2023-03-10T01:58:33.081Z,13.43
2023-03-10T02:01:01.773Z,14.07
2023-03-10T02:03:35.860Z,14.02
2023-03-10T02:06:09.170Z,14.20
2023-03-10T02:08:44.567Z,14.93
2023-03-10T02:11:14.526Z,14.73
2023-03-10T02:13:43.038Z,14.43
2023-03-10T02:16:12.086Z,15.05
2023-03-10T02:18:41.424Z,13.85
2023-03-10T02:21:21.217Z,14.15
2023-03-10T02:24:01.777Z,14.18
2023-03-10T02:26:42.053Z,14.18
2023-03-10T02:29:19.378Z,13.80
2023-03-10T02:31:49.343Z,14.13
2023-03-10T02:34:17.850Z,14.15
2023-03-10T02:36:46.201Z,14.25
2023-03-10T02:39:14.767Z,14.23
2023-03-10T02:41:45.443Z,14.57
2023-03-10T02:44:21.329Z,12.60
2023-03-10T02:46:49.814Z,14.38
2023-03-10T02:49:20.336Z,14.02
2023-03-10T02:51:49.459Z,13.95
2023-03-10T02:54:17.865Z,13.95
2023-03-10T02:56:46.606Z,14.68
2023-03-10T02:59:16.642Z,14.07
2023-03-10T03:01:45.023Z,14.25
2023-03-10T03:04:13.426Z,13.93
2023-03-10T03:06:41.756Z,14.18
2023-03-10T03:09:10.190Z,15.63
2023-03-10T03:11:38.708Z,14.13
2023-03-10T03:14:07.948Z,14.70
2023-03-10T03:16:38.154Z,16.05
2023-03-10T03:19:06.706Z,15.68
2023-03-10T03:21:35.304Z,15.43
2023-03-10T03:24:05.269Z,16.80
2023-03-10T03:26:33.834Z,16.05
2023-03-10T03:29:02.012Z,15.13
2023-03-10T03:31:30.431Z,14.68
2023-03-10T03:34:00.093Z,15.35
2023-03-10T03:36:28.298Z,14.43
2023-03-10T03:38:57.705Z,13.70
2023-03-10T03:41:26.100Z,14.13
2023-03-10T03:43:54.454Z,13.18
2023-03-10T03:46:22.819Z,13.70
2023-03-10T03:48:51.263Z,12.55
2023-03-10T03:51:21.124Z,12.63
2023-03-10T03:53:49.485Z,11.90
2023-03-10T03:56:17.966Z,12.50
2023-03-10T03:58:46.309Z,11.45
2023-03-10T04:01:14.823Z,12.13
2023-03-10T04:03:43.289Z,10.75
2023-03-10T04:06:11.730Z,11.25
2023-03-10T04:08:42.245Z,10.35
2023-03-10T04:11:10.679Z,9.65
2023-03-10T04:13:39.103Z,10.85
2023-03-10T04:16:09.067Z,9.98
2023-03-10T04:18:37.651Z,10.10
2023-03-10T04:21:06.747Z,9.80
2023-03-10T04:23:35.228Z,10.10
2023-03-10T04:26:09.281Z,10.27
2023-03-10T04:28:37.691Z,9.93
2023-03-10T04:31:12.363Z,10.23
2023-03-10T04:33:40.685Z,10.57
2023-03-10T04:36:09.863Z,9.55
2023-03-10T04:38:38.794Z,9.38
2023-03-10T04:41:09.587Z,9.07
2023-03-10T04:43:40.709Z,9.38
2023-03-10T04:46:11.285Z,8.90
2023-03-10T04:48:40.338Z,9.60
2023-03-10T04:51:12.214Z,9.70
2023-03-10T04:53:41.052Z,9.75
2023-03-10T04:56:12.700Z,9.73
2023-03-10T05:01:33.033Z,9.60
2023-03-10T05:04:02.090Z,9.45
2023-03-10T05:06:30.838Z,9.30
2023-03-10T05:09:05.022Z,9.52
2023-03-10T05:11:59.962Z,9.30
2023-03-10T05:14:34.166Z,9.65
2023-03-10T05:17:13.126Z,9.35
2023-03-10T05:19:42.643Z,9.68
2023-03-10T05:22:14.123Z,9.25
2023-03-10T05:24:42.971Z,9.63
2023-03-10T05:27:30.059Z,10.15
2023-03-10T05:30:00.980Z,9.68
2023-03-10T05:32:34.863Z,9.63
2023-03-10T05:35:04.057Z,10.52
2023-03-10T05:37:41.823Z,11.10
2023-03-10T05:40:22.183Z,10.13
2023-03-10T05:42:52.610Z,9.65
2023-03-10T05:45:20.977Z,10.07
2023-03-10T05:47:49.522Z,10.20
2023-03-10T05:50:18.153Z,9.70
2023-03-10T05:52:46.545Z,9.05
2023-03-10T05:55:18.838Z,10.00
2023-03-10T05:57:48.772Z,9.68
2023-03-10T06:00:19.961Z,9.77
2023-03-10T06:02:48.265Z,9.02
2023-03-10T06:05:16.673Z,9.15
2023-03-10T06:07:59.199Z,11.52
2023-03-10T06:10:28.861Z,9.98
2023-03-10T06:12:57.679Z,9.18
2023-03-10T06:15:28.029Z,8.88
2023-03-10T06:17:56.618Z,9.85
2023-03-10T06:20:25.473Z,8.63
2023-03-10T06:22:56.665Z,9.40
2023-03-10T06:25:25.121Z,9.35
2023-03-10T06:27:56.549Z,9.32
2023-03-10T06:30:28.289Z,8.13
2023-03-10T06:32:56.886Z,9.18
2023-03-10T06:35:25.664Z,8.52
2023-03-10T06:37:54.073Z,9.40
2023-03-10T06:40:23.243Z,8.63
2023-03-10T06:42:54.906Z,9.60
2023-03-10T06:45:23.837Z,8.70
2023-03-10T06:47:53.862Z,8.85
2023-03-10T06:50:25.235Z,8.98
2023-03-10T06:52:53.995Z,8.23
2023-03-10T06:55:22.761Z,9.20
2023-03-10T06:57:51.118Z,8.68
2023-03-10T07:00:21.070Z,8.75
2023-03-10T07:02:49.438Z,9.45
2023-03-10T07:05:23.140Z,9.05
2023-03-10T07:07:51.981Z,9.38
2023-03-10T07:10:20.751Z,9.00
2023-03-10T07:12:54.606Z,9.32
2023-03-10T07:15:23.399Z,9.23
2023-03-10T07:17:56.221Z,8.75
2023-03-10T07:20:27.260Z,9.55
2023-03-10T07:22:55.474Z,9.45
2023-03-10T07:25:25.148Z,9.93
2023-03-10T07:27:53.670Z,10.80
2023-03-10T07:30:22.601Z,9.43
2023-03-10T07:32:53.921Z,10.77
2023-03-10T07:35:22.510Z,10.75
2023-03-10T07:37:52.547Z,10.57
2023-03-10T07:40:24.965Z,11.52
2023-03-10T07:42:54.870Z,10.65
2023-03-10T07:45:23.527Z,10.75
2023-03-10T07:47:56.533Z,11.10
2023-03-10T07:50:27.564Z,11.70
2023-03-10T07:53:00.607Z,11.82
2023-03-10T07:55:30.294Z,11.27
2023-03-10T07:58:01.287Z,11.10
2023-03-10T08:00:30.850Z,11.77
2023-03-10T08:02:59.491Z,11.93
2023-03-10T08:05:28.304Z,11.63
2023-03-10T08:08:00.864Z,11.65
2023-03-10T08:10:29.693Z,11.10
2023-03-10T08:12:58.583Z,11.77
2023-03-10T08:15:27.497Z,12.02
2023-03-10T08:17:56.151Z,12.13
2023-03-10T08:20:25.749Z,11.23
2023-03-10T08:22:54.713Z,11.65
2023-03-10T08:25:24.628Z,11.43
2023-03-10T08:27:53.004Z,11.20
2023-03-10T08:30:23.610Z,10.65
2023-03-10T08:32:52.284Z,10.93
2023-03-10T08:35:21.184Z,10.70
2023-03-10T08:37:49.673Z,10.25
2023-03-10T08:40:18.800Z,10.32
2023-03-10T08:42:48.804Z,10.90
2023-03-10T08:45:17.420Z,10.23
2023-03-10T08:47:46.254Z,10.30
2023-03-10T08:50:15.254Z,9.70
2023-03-10T08:52:43.825Z,9.07
2023-03-10T08:55:12.933Z,8.73
2023-03-10T08:57:41.725Z,9.15
2023-03-10T09:00:16.138Z,9.70
2023-03-10T09:02:45.422Z,8.88
2023-03-10T09:05:13.784Z,8.85
2023-03-10T09:07:42.446Z,8.48
2023-03-10T09:10:11.952Z,8.00
2023-03-10T09:12:40.424Z,7.65
2023-03-10T09:15:11.723Z,7.03
2023-03-10T09:17:40.918Z,7.63
2023-03-10T09:20:11.568Z,8.43
2023-03-10T09:22:40.148Z,7.38
2023-03-10T09:25:10.581Z,7.85
2023-03-10T09:27:39.319Z,7.28
2023-03-10T09:30:09.343Z,7.60
2023-03-10T09:32:39.452Z,7.00
2023-03-10T09:35:09.137Z,7.13
2023-03-10T09:37:37.348Z,7.28
2023-03-10T09:40:10.080Z,6.25
2023-03-10T09:42:43.768Z,7.18
2023-03-10T09:45:30.712Z,6.03
2023-03-10T09:48:17.599Z,6.60
2023-03-10T09:50:49.129Z,5.95
2023-03-10T09:53:42.002Z,6.30
2023-03-10T09:56:19.515Z,5.80
2023-03-10T09:58:55.681Z,5.75
2023-03-10T10:01:29.286Z,5.90
2023-03-10T10:04:05.856Z,5.63
2023-03-10T10:06:39.158Z,6.82
2023-03-10T10:09:13.787Z,6.88
2023-03-10T10:11:42.551Z,6.50
2023-03-10T10:14:30.363Z,7.43
2023-03-10T10:17:09.890Z,6.82
2023-03-10T10:19:41.265Z,6.78
2023-03-10T10:22:18.718Z,6.53
2023-03-10T10:25:04.308Z,6.05
2023-03-10T10:27:34.994Z,6.57
2023-03-10T10:30:36.314Z,6.95
2023-03-10T10:33:08.710Z,8.77
2023-03-10T10:35:41.314Z,9.40
2023-03-10T10:38:26.002Z,9.82
2023-03-10T10:41:07.039Z,9.75
2023-03-10T10:43:43.848Z,11.57
2023-03-10T10:46:16.317Z,9.40
2023-03-10T10:48:48.437Z,9.70
2023-03-10T10:51:30.496Z,10.65
2023-03-10T10:54:00.913Z,9.95
2023-03-10T10:56:30.499Z,9.68
2023-03-10T10:59:08.478Z,9.63
2023-03-10T11:01:54.856Z,10.18
2023-03-10T11:04:25.477Z,10.13
2023-03-10T11:07:11.160Z,10.13
2023-03-10T11:09:42.049Z,10.48
2023-03-10T11:12:22.062Z,12.10
2023-03-10T11:15:11.069Z,10.25
2023-03-10T11:17:45.401Z,11.43
2023-03-10T11:20:26.624Z,11.00
2023-03-10T11:23:13.935Z,11.50
2023-03-10T11:25:49.314Z,10.73
2023-03-10T11:28:42.745Z,10.05
2023-03-10T11:31:27.555Z,10.20
2023-03-10T11:34:07.115Z,9.85
2023-03-10T11:36:55.438Z,9.32
2023-03-10T11:39:41.699Z,9.35
2023-03-10T11:42:25.210Z,10.90
2023-03-10T11:45:13.683Z,10.30
2023-03-10T11:47:54.476Z,9.68
2023-03-10T11:50:40.654Z,10.35
2023-03-10T11:53:17.657Z,9.45
2023-03-10T11:55:52.782Z,8.70
2023-03-10T11:58:32.409Z,9.00
2023-03-10T12:01:02.768Z,9.25
2023-03-10T12:03:48.743Z,9.48
2023-03-10T12:06:23.881Z,9.45
2023-03-10T12:08:57.098Z,9.77
2023-03-10T12:11:28.709Z,10.05
2023-03-10T12:14:01.031Z,8.18
2023-03-10T12:16:33.967Z,9.63
2023-03-10T12:19:02.877Z,9.38
2023-03-10T12:21:33.639Z,9.88
2023-03-10T12:24:04.774Z,8.98
2023-03-10T12:27:05.998Z,8.77
2023-03-10T12:29:41.652Z,8.45
2023-03-10T12:32:44.541Z,9.13
2023-03-10T12:35:55.355Z,9.82
2023-03-10T12:38:38.550Z,9.15
2023-03-10T12:41:08.101Z,8.95
2023-03-10T12:44:26.810Z,9.55
2023-03-10T12:47:02.892Z,9.20
2023-03-10T12:49:42.522Z,9.77
2023-03-10T12:52:23.977Z,10.73
2023-03-10T12:55:21.187Z,10.40
2023-03-10T12:58:04.475Z,10.23
2023-03-10T13:00:48.153Z,10.18
2023-03-10T13:03:32.747Z,10.98
2023-03-10T13:06:09.597Z,11.40
2023-03-10T13:08:46.935Z,10.90
2023-03-10T13:11:32.074Z,10.48
2023-03-10T13:14:04.187Z,10.93
2023-03-10T13:16:36.769Z,11.55
2023-03-10T13:19:06.296Z,11.18
2023-03-10T13:21:37.365Z,11.52
2023-03-10T13:24:24.933Z,10.75
2023-03-10T13:27:08.679Z,11.50
2023-03-10T13:29:39.405Z,11.32
2023-03-10T13:32:30.504Z,13.13
2023-03-10T13:35:00.225Z,12.32
2023-03-10T13:37:28.620Z,12.32
2023-03-10T13:40:09.389Z,12.38
2023-03-10T13:47:58.342Z,15.13
2023-03-10T13:50:45.595Z,15.70
2023-03-10T13:53:27.189Z,15.60
2023-03-10T13:55:57.511Z,19.05
2023-03-10T13:58:27.780Z,18.10
2023-03-10T14:00:57.459Z,19.75
2023-03-10T14:03:29.344Z,19.77
2023-03-10T14:05:59.052Z,19.02
2023-03-10T14:08:32.628Z,17.88
2023-03-10T14:11:23.497Z,12.88
2023-03-10T14:13:52.693Z,9.27
2023-03-10T14:16:22.518Z,8.73
2023-03-10T14:18:52.335Z,7.25
2023-03-10T14:21:33.977Z,7.60
2023-03-10T14:24:08.600Z,8.57
2023-03-10T14:26:40.019Z,6.55
2023-03-10T14:29:16.764Z,6.68
2023-03-10T14:31:51.408Z,5.35
2023-03-10T14:34:23.853Z,5.40
2023-03-10T14:36:58.062Z,5.20
2023-03-10T14:39:26.380Z,5.43
2023-03-10T14:41:54.625Z,5.10
2023-03-10T14:44:23.281Z,6.00
2023-03-10T14:46:53.643Z,4.95
2023-03-10T14:49:28.222Z,4.78
2023-03-10T14:51:56.642Z,4.18
2023-03-10T14:54:26.225Z,4.90
2023-03-10T14:56:59.982Z,5.38
2023-03-10T14:59:29.609Z,5.22
2023-03-10T15:02:00.265Z,5.38
2023-03-10T15:04:30.402Z,6.05
2023-03-10T15:06:59.186Z,5.97
2023-03-10T15:09:27.746Z,6.13
2023-03-10T15:11:57.126Z,5.15
2023-03-10T15:14:25.507Z,5.97
2023-03-10T15:16:55.604Z,6.07
2023-03-10T15:19:26.159Z,5.55
2023-03-10T15:21:56.421Z,5.97
2023-03-10T15:24:25.022Z,6.38
2023-03-10T15:26:53.297Z,6.50
2023-03-10T15:29:23.571Z,6.75
2023-03-10T15:31:52.996Z,7.43
2023-03-10T15:34:21.769Z,7.10
2023-03-10T15:36:50.707Z,6.50
2023-03-10T15:39:31.137Z,6.20
2023-03-10T15:42:00.567Z,4.75
2023-03-10T15:44:29.018Z,5.53
2023-03-10T15:46:57.495Z,5.47
2023-03-10T15:49:26.004Z,5.45
2023-03-10T15:51:55.322Z,5.80
2023-03-10T15:54:25.944Z,5.13
2023-03-10T15:56:56.686Z,4.57
2023-03-10T15:59:25.138Z,3.53
2023-03-10T16:01:56.262Z,2.00
2023-03-10T16:04:24.914Z,1.30
2023-03-10T16:06:54.350Z,1.63
2023-03-10T16:09:24.315Z,1.10
2023-03-10T16:11:53.309Z,0.60
2023-03-10T16:14:21.786Z,0.98
2023-03-10T16:16:50.354Z,1.13
2023-03-10T16:19:19.025Z,1.20
2023-03-10T16:21:47.633Z,1.30
2023-03-10T16:24:15.937Z,1.17
2023-03-10T16:26:46.335Z,1.27
2023-03-10T16:29:15.518Z,1.80
2023-03-10T16:31:46.225Z,1.20
2023-03-10T16:34:15.356Z,1.50
2023-03-10T16:36:44.131Z,1.27
2023-03-10T16:39:32.233Z,1.30
2023-03-10T16:42:21.466Z,1.58
2023-03-10T16:44:50.419Z,1.13
2023-03-10T16:47:19.172Z,1.25
2023-03-10T16:49:48.024Z,1.15
2023-03-10T16:52:16.591Z,1.27
2023-03-10T16:54:46.663Z,1.20
2023-03-10T16:57:16.936Z,0.70
2023-03-10T16:59:48.703Z,0.80
2023-03-10T17:02:18.218Z,1.20
2023-03-10T17:04:46.760Z,0.68
2023-03-10T17:07:15.354Z,0.60
2023-03-10T17:09:45.778Z,0.63
2023-03-10T17:12:14.380Z,0.98
2023-03-10T17:14:44.179Z,0.80
2023-03-10T17:17:14.497Z,1.05
2023-03-10T17:19:43.418Z,1.08
2023-03-10T17:35:38.985Z,1.00
2023-03-10T17:38:07.359Z,1.45
2023-03-10T17:40:35.655Z,1.10
2023-03-10T17:43:17.591Z,1.50
2023-03-10T17:45:59.359Z,1.40
2023-03-10T17:48:28.032Z,1.50
2023-03-10T17:50:58.256Z,1.60
2023-03-10T17:53:27.971Z,1.15
2023-03-10T17:55:56.676Z,1.90
2023-03-10T17:58:27.034Z,1.42
2023-03-10T18:00:55.395Z,1.75
2023-03-10T18:03:23.831Z,1.60
2023-03-10T18:05:52.348Z,1.73
2023-03-10T18:08:25.855Z,1.88
2023-03-10T18:11:03.903Z,1.30
2023-03-10T18:13:37.176Z,1.05
2023-03-10T18:16:06.628Z,0.93
2023-03-10T18:18:35.376Z,1.30
2023-03-10T18:21:03.639Z,1.52
2023-03-10T18:23:33.516Z,1.23
2023-03-10T18:26:01.842Z,0.98
2023-03-10T18:28:30.075Z,0.98
2023-03-10T18:30:58.522Z,0.90
2023-03-10T18:33:27.025Z,1.10
2023-03-10T18:35:56.344Z,1.17
2023-03-10T18:38:27.081Z,1.67
2023-03-10T18:41:01.809Z,1.88
2023-03-10T18:43:32.242Z,1.02
2023-03-10T18:46:01.040Z,1.50
2023-03-10T18:48:29.878Z,2.13
2023-03-10T18:51:01.799Z,2.10
2023-03-10T18:53:30.875Z,1.83
2023-03-10T18:56:01.750Z,1.55
2023-03-10T18:58:51.046Z,2.20
2023-03-10T19:01:25.782Z,2.92
2023-03-10T19:03:56.411Z,2.25
2023-03-10T19:06:24.917Z,2.05
2023-03-10T19:08:53.794Z,2.00
2023-03-10T19:11:24.519Z,2.30
2023-03-10T19:13:54.530Z,2.00
2023-03-10T19:16:22.982Z,2.50
2023-03-10T19:18:51.612Z,2.33
2023-03-10T19:21:22.803Z,2.60
2023-03-10T19:23:51.858Z,2.75
2023-03-10T19:26:20.551Z,3.13
2023-03-10T19:28:50.733Z,2.95
2023-03-10T19:31:19.048Z,2.60
2023-03-10T19:33:47.495Z,2.10
2023-03-10T19:36:21.777Z,2.58
2023-03-10T19:38:50.431Z,2.40
2023-03-10T19:41:22.158Z,2.30
2023-03-10T19:43:52.172Z,2.28
2023-03-10T19:46:23.101Z,2.58
2023-03-10T19:48:51.700Z,2.40
2023-03-10T19:51:25.718Z,2.28
2023-03-10T19:53:58.127Z,1.95
2023-03-10T19:56:29.362Z,2.22
2023-03-10T19:58:59.269Z,1.98
2023-03-10T20:01:29.050Z,1.80
2023-03-10T20:04:05.175Z,1.52
2023-03-10T20:06:33.579Z,2.53
2023-03-10T20:09:03.819Z,1.92
2023-03-10T20:11:39.646Z,2.90
2023-03-10T20:14:30.588Z,2.72
2023-03-10T20:17:02.077Z,2.35
2023-03-10T20:19:30.553Z,2.58
2023-03-10T20:22:00.322Z,2.55
2023-03-10T20:24:32.496Z,2.40
2023-03-10T20:27:03.142Z,2.10
2023-03-10T20:29:33.746Z,2.30
2023-03-10T20:32:04.391Z,2.10
2023-03-10T20:34:33.803Z,1.95
2023-03-10T20:37:02.547Z,2.35
2023-03-10T20:39:31.531Z,2.80
2023-03-10T20:42:00.173Z,2.83
2023-03-10T20:44:28.791Z,2.65
2023-03-10T20:46:58.975Z,2.33
2023-03-10T20:49:27.338Z,1.90
2023-03-10T20:51:55.663Z,1.67
2023-03-10T20:54:24.186Z,1.13
2023-03-10T20:56:53.106Z,1.77
2023-03-10T20:59:21.671Z,1.40
2023-03-10T21:01:51.897Z,1.50
2023-03-10T21:04:21.976Z,1.50
2023-03-10T21:06:50.549Z,1.60
2023-03-10T21:09:19.820Z,1.10
2023-03-10T21:11:48.214Z,1.55
2023-03-10T21:14:33.996Z,1.85
2023-03-10T21:17:05.870Z,1.65
2023-03-10T21:19:36.663Z,2.13
2023-03-10T21:22:05.160Z,2.53
2023-03-10T21:24:33.532Z,2.10
2023-03-10T21:27:02.369Z,2.45
2023-03-10T21:29:31.017Z,2.65
2023-03-10T21:31:59.564Z,2.03
2023-03-10T21:34:28.426Z,2.50
2023-03-10T21:36:58.250Z,3.15
2023-03-10T21:39:26.886Z,2.33
2023-03-10T21:41:55.898Z,2.63
2023-03-10T21:44:24.467Z,2.20
2023-03-10T21:46:52.765Z,2.28
2023-03-10T21:49:21.252Z,1.90
2023-03-10T21:51:50.198Z,1.60
2023-03-10T21:54:20.021Z,1.90
2023-03-10T21:56:49.072Z,2.28
2023-03-10T21:59:17.775Z,2.00
2023-03-10T22:01:47.766Z,2.28
2023-03-10T22:04:16.507Z,2.55
2023-03-10T22:06:45.006Z,2.67
2023-03-10T22:09:14.296Z,1.80
2023-03-10T22:11:44.264Z,2.35
2023-03-10T22:14:12.842Z,2.15
2023-03-10T22:16:42.049Z,2.70
2023-03-10T22:19:10.467Z,2.55
2023-03-10T22:21:39.073Z,2.47
2023-03-10T22:24:07.964Z,2.05
2023-03-10T22:26:36.409Z,2.55
2023-03-10T22:29:06.399Z,3.40
2023-03-10T22:31:34.883Z,3.17
2023-03-10T22:34:04.840Z,2.05
2023-03-10T22:36:33.631Z,2.03
2023-03-10T22:39:02.216Z,1.73
2023-03-10T22:41:30.605Z,2.30
2023-03-10T22:43:59.369Z,1.58
2023-03-10T22:46:29.526Z,1.92
2023-03-10T22:48:58.063Z,1.77
2023-03-10T22:51:26.758Z,2.30
2023-03-10T22:53:55.548Z,1.60
2023-03-10T22:56:23.907Z,2.25
2023-03-10T22:58:52.354Z,1.70
2023-03-10T23:01:22.004Z,1.42
2023-03-10T23:03:52.170Z,1.77
2023-03-10T23:06:20.724Z,1.52
2023-03-10T23:08:49.043Z,1.60
2023-03-10T23:11:18.120Z,2.30
2023-03-10T23:13:46.504Z,1.60
2023-03-10T23:16:18.151Z,1.83
2023-03-10T23:18:47.568Z,1.95
2023-03-10T23:21:17.755Z,1.20
2023-03-10T23:23:48.127Z,2.03
2023-03-10T23:26:17.368Z,1.50
2023-03-10T23:28:45.874Z,1.15
2023-03-10T23:31:17.051Z,1.45
2023-03-10T23:33:46.561Z,1.25
2023-03-10T23:36:16.409Z,1.60
2023-03-10T23:38:44.869Z,1.33
2023-03-10T23:41:14.298Z,1.90
2023-03-10T23:43:43.360Z,1.67
2023-03-10T23:46:11.966Z,1.40
2023-03-10T23:48:40.400Z,1.65
2023-03-10T23:51:16.605Z,1.73
2023-03-10T23:53:45.321Z,1.23
2023-03-10T23:56:13.906Z,1.55
2023-03-10T23:58:42.666Z,1.77
